Nashville, Tennessee
Traffic Map
Current Weather Conditions
Nashville, Tennessee
Clear
Clear

Feels Like: 4°
Wind Chill: Ceiling: Unl
Heat Index: Visibility: 10mi
Dew Point: Wind: 7mph
Humidity: 79% Direction: 10° (N)
Pressure: 29.93in Gusts: 0mph
Raw Report DataKBNA 270953Z 01006KT 10SM CLR 07/03 A2993 RMK AO2 SLP135 T00670033
Traffic Incident Summary
Active as of:
Severity:
Category:
InformationThere was an issue retrieving the traffic information for this location. Please try a different location or try again shortly.
Advertisements
Track Severe Weather on mobile